sensor_id;sensor_type;location;lat;lon;timestamp;temperature;humidity
9861;DHT22;4969;52.304;4.968;2024-02-21T00:02:04;13.90;73.10
9861;DHT22;4969;52.304;4.968;2024-02-21T00:04:31;13.51;72.02
9861;DHT22;4969;52.304;4.968;2024-02-21T00:06:58;13.17;70.28
9861;DHT22;4969;52.304;4.968;2024-02-21T00:09:26;13.16;75.73
9861;DHT22;4969;52.304;4.968;2024-02-21T00:11:53;13.20;74.23
9861;DHT22;4969;52.304;4.968;2024-02-21T00:14:19;13.22;75.28
9861;DHT22;4969;52.304;4.968;2024-02-21T00:16:46;13.28;71.83
9861;DHT22;4969;52.304;4.968;2024-02-21T00:19:12;13.31;73.43
9861;DHT22;4969;52.304;4.968;2024-02-21T00:21:39;13.22;73.09
9861;DHT22;4969;52.304;4.968;2024-02-21T00:24:06;13.83;73.70
9861;DHT22;4969;52.304;4.968;2024-02-21T00:26:34;13.77;74.44
9861;DHT22;4969;52.304;4.968;2024-02-21T00:29:01;14.27;72.11
9861;DHT22;4969;52.304;4.968;2024-02-21T00:31:27;14.55;73.56
9861;DHT22;4969;52.304;4.968;2024-02-21T00:33:54;13.57;70.94
9861;DHT22;4969;52.304;4.968;2024-02-21T00:36:20;13.62;72.47
9861;DHT22;4969;52.304;4.968;2024-02-21T00:38:47;13.24;72.71
9861;DHT22;4969;52.304;4.968;2024-02-21T00:41:13;13.69;71.92
9861;DHT22;4969;52.304;4.968;2024-02-21T00:43:41;14.37;75.03
9861;DHT22;4969;52.304;4.968;2024-02-21T00:46:08;14.55;72.64
9861;DHT22;4969;52.304;4.968;2024-02-21T00:48:35;13.74;70.19
9861;DHT22;4969;52.304;4.968;2024-02-21T00:51:01;13.26;74.89
9861;DHT22;4969;52.304;4.968;2024-02-21T00:53:28;13.27;76.43
9861;DHT22;4969;52.304;4.968;2024-02-21T00:55:54;13.48;74.01
9861;DHT22;4969;52.304;4.968;2024-02-21T00:58:22;14.21;71.33
9861;DHT22;4969;52.304;4.968;2024-02-21T01:00:50;14.09;72.95
9861;DHT22;4969;52.304;4.968;2024-02-21T01:03:16;13.83;70.47
9861;DHT22;4969;52.304;4.968;2024-02-21T01:05:43;14.31;75.87
9861;DHT22;4969;52.304;4.968;2024-02-21T01:08:09;14.02;71.88
9861;DHT22;4969;52.304;4.968;2024-02-21T01:10:36;13.75;71.39
9861;DHT22;4969;52.304;4.968;2024-02-21T01:13:03;14.05;74.57
9861;DHT22;4969;52.304;4.968;2024-02-21T01:15:29;13.78;73.15
9861;DHT22;4969;52.304;4.968;2024-02-21T01:17:57;13.65;72.68
9861;DHT22;4969;52.304;4.968;2024-02-21T01:20:24;13.30;72.06
9861;DHT22;4969;52.304;4.968;2024-02-21T01:22:50;13.62;76.42
9861;DHT22;4969;52.304;4.968;2024-02-21T01:25:17;13.61;73.71
9861;DHT22;4969;52.304;4.968;2024-02-21T01:27:43;13.42;70.51
9861;DHT22;4969;52.304;4.968;2024-02-21T01:30:11;13.72;75.97
9861;DHT22;4969;52.304;4.968;2024-02-21T01:32:37;14.18;75.16
9861;DHT22;4969;52.304;4.968;2024-02-21T01:35:06;13.95;71.61
9861;DHT22;4969;52.304;4.968;2024-02-21T01:37:33;13.58;74.24
9861;DHT22;4969;52.304;4.968;2024-02-21T01:39:59;12.85;70.91
9861;DHT22;4969;52.304;4.968;2024-02-21T01:42:27;13.02;74.12
9861;DHT22;4969;52.304;4.968;2024-02-21T01:44:54;13.20;73.45
9861;DHT22;4969;52.304;4.968;2024-02-21T01:47:20;13.22;74.75
9861;DHT22;4969;52.304;4.968;2024-02-21T01:49:47;12.79;72.81
9861;DHT22;4969;52.304;4.968;2024-02-21T01:52:16;13.02;74.99
9861;DHT22;4969;52.304;4.968;2024-02-21T01:54:43;12.95;75.03
9861;DHT22;4969;52.304;4.968;2024-02-21T01:57:10;13.75;75.56
9861;DHT22;4969;52.304;4.968;2024-02-21T01:59:37;13.38;74.29
9861;DHT22;4969;52.304;4.968;2024-02-21T02:02:04;13.26;72.98
9861;DHT22;4969;52.304;4.968;2024-02-21T02:04:31;13.33;73.38
9861;DHT22;4969;52.304;4.968;2024-02-21T02:07:00;13.16;71.55
9861;DHT22;4969;52.304;4.968;2024-02-21T02:09:30;13.52;73.76
9861;DHT22;4969;52.304;4.968;2024-02-21T02:11:56;13.52;74.03
9861;DHT22;4969;52.304;4.968;2024-02-21T02:14:23;13.22;72.04
9861;DHT22;4969;52.304;4.968;2024-02-21T02:16:50;13.23;75.00
9861;DHT22;4969;52.304;4.968;2024-02-21T02:19:16;13.81;75.00
9861;DHT22;4969;52.304;4.968;2024-02-21T02:21:46;13.95;71.51
9861;DHT22;4969;52.304;4.968;2024-02-21T02:24:20;13.52;71.60
9861;DHT22;4969;52.304;4.968;2024-02-21T02:26:47;13.83;73.22
9861;DHT22;4969;52.304;4.968;2024-02-21T02:29:13;13.50;71.73
9861;DHT22;4969;52.304;4.968;2024-02-21T02:31:40;13.48;73.59
9861;DHT22;4969;52.304;4.968;2024-02-21T02:34:07;13.30;73.88
9861;DHT22;4969;52.304;4.968;2024-02-21T02:36:33;13.09;71.71
9861;DHT22;4969;52.304;4.968;2024-02-21T02:39:00;13.40;76.73
9861;DHT22;4969;52.304;4.968;2024-02-21T02:41:28;13.28;76.04
9861;DHT22;4969;52.304;4.968;2024-02-21T02:43:54;12.96;73.12
9861;DHT22;4969;52.304;4.968;2024-02-21T02:46:21;12.78;72.92
9861;DHT22;4969;52.304;4.968;2024-02-21T02:48:47;12.31;73.92
9861;DHT22;4969;52.304;4.968;2024-02-21T02:51:14;12.29;77.20
9861;DHT22;4969;52.304;4.968;2024-02-21T02:53:41;12.45;76.47
9861;DHT22;4969;52.304;4.968;2024-02-21T02:56:07;12.96;77.08
9861;DHT22;4969;52.304;4.968;2024-02-21T02:58:41;12.45;75.72
9861;DHT22;4969;52.304;4.968;2024-02-21T03:01:08;12.72;74.67
9861;DHT22;4969;52.304;4.968;2024-02-21T03:03:34;13.44;79.31
9861;DHT22;4969;52.304;4.968;2024-02-21T03:06:01;13.68;74.98
9861;DHT22;4969;52.304;4.968;2024-02-21T03:08:27;14.34;75.68
9861;DHT22;4969;52.304;4.968;2024-02-21T03:10:54;13.63;72.56
9861;DHT22;4969;52.304;4.968;2024-02-21T03:13:20;13.03;72.82
9861;DHT22;4969;52.304;4.968;2024-02-21T03:15:48;13.31;76.63
9861;DHT22;4969;52.304;4.968;2024-02-21T03:18:15;13.58;73.82
9861;DHT22;4969;52.304;4.968;2024-02-21T03:20:41;13.59;74.60
9861;DHT22;4969;52.304;4.968;2024-02-21T03:23:08;13.66;76.52
9861;DHT22;4969;52.304;4.968;2024-02-21T03:25:34;13.27;73.23
9861;DHT22;4969;52.304;4.968;2024-02-21T03:28:01;13.10;74.03
9861;DHT22;4969;52.304;4.968;2024-02-21T03:30:28;13.20;72.66
9861;DHT22;4969;52.304;4.968;2024-02-21T03:32:56;13.09;72.58
9861;DHT22;4969;52.304;4.968;2024-02-21T03:35:23;12.96;74.70
9861;DHT22;4969;52.304;4.968;2024-02-21T03:37:51;12.64;74.11
9861;DHT22;4969;52.304;4.968;2024-02-21T03:40:18;12.69;75.67
9861;DHT22;4969;52.304;4.968;2024-02-21T03:42:44;12.72;75.77
9861;DHT22;4969;52.304;4.968;2024-02-21T03:45:11;12.33;75.33
9861;DHT22;4969;52.304;4.968;2024-02-21T03:47:37;12.93;78.76
9861;DHT22;4969;52.304;4.968;2024-02-21T03:50:06;13.65;76.45
9861;DHT22;4969;52.304;4.968;2024-02-21T03:52:33;13.57;74.76
9861;DHT22;4969;52.304;4.968;2024-02-21T03:55:00;14.14;73.88
9861;DHT22;4969;52.304;4.968;2024-02-21T03:57:26;14.44;71.74
9861;DHT22;4969;52.304;4.968;2024-02-21T03:59:53;14.54;74.77
9861;DHT22;4969;52.304;4.968;2024-02-21T04:02:20;14.30;71.79
9861;DHT22;4969;52.304;4.968;2024-02-21T04:04:46;14.18;71.53
9861;DHT22;4969;52.304;4.968;2024-02-21T04:07:14;14.54;72.87
9861;DHT22;4969;52.304;4.968;2024-02-21T04:09:42;15.07;72.53
9861;DHT22;4969;52.304;4.968;2024-02-21T04:12:08;14.55;72.95
9861;DHT22;4969;52.304;4.968;2024-02-21T04:14:35;14.44;68.37
9861;DHT22;4969;52.304;4.968;2024-02-21T04:17:02;14.09;70.80
9861;DHT22;4969;52.304;4.968;2024-02-21T04:19:28;13.74;73.57
9861;DHT22;4969;52.304;4.968;2024-02-21T04:21:56;13.92;72.50
9861;DHT22;4969;52.304;4.968;2024-02-21T04:24:24;13.63;70.95
9861;DHT22;4969;52.304;4.968;2024-02-21T04:26:50;13.27;74.44
9861;DHT22;4969;52.304;4.968;2024-02-21T04:29:17;13.75;72.80
9861;DHT22;4969;52.304;4.968;2024-02-21T04:31:43;13.88;72.74
9861;DHT22;4969;52.304;4.968;2024-02-21T04:34:10;14.18;73.72
9861;DHT22;4969;52.304;4.968;2024-02-21T04:36:37;13.57;72.16
9861;DHT22;4969;52.304;4.968;2024-02-21T04:39:03;13.44;72.41
9861;DHT22;4969;52.304;4.968;2024-02-21T04:41:31;13.58;73.70
9861;DHT22;4969;52.304;4.968;2024-02-21T04:43:58;13.44;74.76
9861;DHT22;4969;52.304;4.968;2024-02-21T04:46:25;13.79;74.04
9861;DHT22;4969;52.304;4.968;2024-02-21T04:48:51;14.41;73.37
9861;DHT22;4969;52.304;4.968;2024-02-21T04:51:18;14.60;71.12
9861;DHT22;4969;52.304;4.968;2024-02-21T04:53:44;14.69;69.79
9861;DHT22;4969;52.304;4.968;2024-02-21T04:56:11;14.65;71.17
9861;DHT22;4969;52.304;4.968;2024-02-21T04:58:39;14.76;70.02
9861;DHT22;4969;52.304;4.968;2024-02-21T05:01:06;14.23;69.72
9861;DHT22;4969;52.304;4.968;2024-02-21T05:03:33;14.55;73.89
9861;DHT22;4969;52.304;4.968;2024-02-21T05:05:59;14.88;71.81
9861;DHT22;4969;52.304;4.968;2024-02-21T05:08:26;15.03;72.97
9861;DHT22;4969;52.304;4.968;2024-02-21T05:10:53;15.11;69.89
9861;DHT22;4969;52.304;4.968;2024-02-21T05:13:19;14.76;72.57
9861;DHT22;4969;52.304;4.968;2024-02-21T05:15:47;14.86;71.92
9861;DHT22;4969;52.304;4.968;2024-02-21T05:18:14;15.00;73.22
9861;DHT22;4969;52.304;4.968;2024-02-21T05:20:41;14.98;71.24
9861;DHT22;4969;52.304;4.968;2024-02-21T05:23:07;14.14;69.56
9861;DHT22;4969;52.304;4.968;2024-02-21T05:25:34;14.55;72.33
9861;DHT22;4969;52.304;4.968;2024-02-21T05:28:00;14.62;72.54
9861;DHT22;4969;52.304;4.968;2024-02-21T05:30:28;15.07;72.11
9861;DHT22;4969;52.304;4.968;2024-02-21T05:32:56;15.23;68.58
9861;DHT22;4969;52.304;4.968;2024-02-21T05:35:25;15.54;70.53
9861;DHT22;4969;52.304;4.968;2024-02-21T05:37:52;15.90;68.73
9861;DHT22;4969;52.304;4.968;2024-02-21T05:40:19;15.58;70.20
9861;DHT22;4969;52.304;4.968;2024-02-21T05:42:45;15.58;68.86
9861;DHT22;4969;52.304;4.968;2024-02-21T05:45:12;15.18;67.28
9861;DHT22;4969;52.304;4.968;2024-02-21T05:47:40;15.62;68.99
9861;DHT22;4969;52.304;4.968;2024-02-21T05:50:09;15.13;66.37
9861;DHT22;4969;52.304;4.968;2024-02-21T05:52:36;15.66;68.47
9861;DHT22;4969;52.304;4.968;2024-02-21T05:55:03;15.83;67.98
9861;DHT22;4969;52.304;4.968;2024-02-21T05:57:29;15.37;67.44
9861;DHT22;4969;52.304;4.968;2024-02-21T05:59:56;15.61;70.20
9861;DHT22;4969;52.304;4.968;2024-02-21T06:02:22;15.31;68.51
9861;DHT22;4969;52.304;4.968;2024-02-21T06:04:49;15.17;68.37
9861;DHT22;4969;52.304;4.968;2024-02-21T06:07:17;15.24;66.51
9861;DHT22;4969;52.304;4.968;2024-02-21T06:09:43;15.66;69.38
9861;DHT22;4969;52.304;4.968;2024-02-21T06:12:10;15.31;68.59
9861;DHT22;4969;52.304;4.968;2024-02-21T06:14:37;15.16;67.43
9861;DHT22;4969;52.304;4.968;2024-02-21T06:17:03;15.31;68.59
9861;DHT22;4969;52.304;4.968;2024-02-21T06:19:30;15.54;69.19
9861;DHT22;4969;52.304;4.968;2024-02-21T06:21:56;15.45;68.24
9861;DHT22;4969;52.304;4.968;2024-02-21T06:24:24;15.93;70.52
9861;DHT22;4969;52.304;4.968;2024-02-21T06:26:51;15.83;67.55
9861;DHT22;4969;52.304;4.968;2024-02-21T06:29:17;15.96;67.86
9861;DHT22;4969;52.304;4.968;2024-02-21T06:31:44;15.86;67.87
9861;DHT22;4969;52.304;4.968;2024-02-21T06:34:10;16.31;66.82
9861;DHT22;4969;52.304;4.968;2024-02-21T06:36:37;15.92;68.34
9861;DHT22;4969;52.304;4.968;2024-02-21T06:39:03;16.03;70.17
9861;DHT22;4969;52.304;4.968;2024-02-21T06:41:34;15.50;68.24
9861;DHT22;4969;52.304;4.968;2024-02-21T06:44:01;15.69;70.51
9861;DHT22;4969;52.304;4.968;2024-02-21T06:46:28;16.36;69.05
9861;DHT22;4969;52.304;4.968;2024-02-21T06:48:56;15.96;69.41
9861;DHT22;4969;52.304;4.968;2024-02-21T06:51:22;16.16;70.01
9861;DHT22;4969;52.304;4.968;2024-02-21T06:53:49;15.93;64.03
9861;DHT22;4969;52.304;4.968;2024-02-21T06:56:16;16.30;68.51
9861;DHT22;4969;52.304;4.968;2024-02-21T06:58:44;15.66;64.75
9861;DHT22;4969;52.304;4.968;2024-02-21T07:01:11;16.10;68.38
9861;DHT22;4969;52.304;4.968;2024-02-21T07:03:37;15.59;68.46
9861;DHT22;4969;52.304;4.968;2024-02-21T07:06:04;15.72;68.32
9861;DHT22;4969;52.304;4.968;2024-02-21T07:08:31;15.69;69.33
9861;DHT22;4969;52.304;4.968;2024-02-21T07:10:57;15.33;67.15
9861;DHT22;4969;52.304;4.968;2024-02-21T07:13:24;15.20;68.29
9861;DHT22;4969;52.304;4.968;2024-02-21T07:15:52;14.76;64.97
9861;DHT22;4969;52.304;4.968;2024-02-21T07:18:18;15.00;69.16
9861;DHT22;4969;52.304;4.968;2024-02-21T07:20:45;15.65;70.54
9861;DHT22;4969;52.304;4.968;2024-02-21T07:23:11;15.76;69.83
9861;DHT22;4969;52.304;4.968;2024-02-21T07:25:39;15.69;68.81
9861;DHT22;4969;52.304;4.968;2024-02-21T07:28:06;15.94;69.21
9861;DHT22;4969;52.304;4.968;2024-02-21T07:30:33;17.10;66.92
9861;DHT22;4969;52.304;4.968;2024-02-21T07:33:01;16.57;64.55
9861;DHT22;4969;52.304;4.968;2024-02-21T07:35:28;16.82;66.85
9861;DHT22;4969;52.304;4.968;2024-02-21T07:37:54;16.59;63.45
9861;DHT22;4969;52.304;4.968;2024-02-21T07:40:21;16.76;66.10
9861;DHT22;4969;52.304;4.968;2024-02-21T07:42:47;16.64;67.26
9861;DHT22;4969;52.304;4.968;2024-02-21T07:45:14;16.92;66.23
9861;DHT22;4969;52.304;4.968;2024-02-21T07:47:41;16.96;66.22
9861;DHT22;4969;52.304;4.968;2024-02-21T07:50:09;16.72;64.65
9861;DHT22;4969;52.304;4.968;2024-02-21T07:52:36;16.68;66.49
9861;DHT22;4969;52.304;4.968;2024-02-21T07:55:03;16.45;66.10
9861;DHT22;4969;52.304;4.968;2024-02-21T07:57:29;16.83;67.04
9861;DHT22;4969;52.304;4.968;2024-02-21T07:59:56;16.23;64.55
9861;DHT22;4969;52.304;4.968;2024-02-21T08:02:23;17.03;66.65
9861;DHT22;4969;52.304;4.968;2024-02-21T08:04:49;17.03;65.74
9861;DHT22;4969;52.304;4.968;2024-02-21T08:07:17;16.73;66.45
9861;DHT22;4969;52.304;4.968;2024-02-21T08:09:43;17.13;65.49
9861;DHT22;4969;52.304;4.968;2024-02-21T08:12:10;17.13;65.56
9861;DHT22;4969;52.304;4.968;2024-02-21T08:14:37;17.09;66.26
9861;DHT22;4969;52.304;4.968;2024-02-21T08:17:03;16.85;65.52
9861;DHT22;4969;52.304;4.968;2024-02-21T08:19:30;17.06;66.64
9861;DHT22;4969;52.304;4.968;2024-02-21T08:21:56;16.91;63.16
9861;DHT22;4969;52.304;4.968;2024-02-21T08:24:24;17.17;65.53
9861;DHT22;4969;52.304;4.968;2024-02-21T08:26:51;17.02;63.21
9861;DHT22;4969;52.304;4.968;2024-02-21T08:29:17;17.27;64.77
9861;DHT22;4969;52.304;4.968;2024-02-21T08:31:44;17.09;65.13
9861;DHT22;4969;52.304;4.968;2024-02-21T08:34:10;17.06;65.60
9861;DHT22;4969;52.304;4.968;2024-02-21T08:36:38;16.54;60.41
9861;DHT22;4969;52.304;4.968;2024-02-21T08:39:05;16.47;67.91
9861;DHT22;4969;52.304;4.968;2024-02-21T08:41:33;16.72;66.67
9861;DHT22;4969;52.304;4.968;2024-02-21T08:44:00;16.69;63.40
9861;DHT22;4969;52.304;4.968;2024-02-21T08:46:27;16.57;62.41
9861;DHT22;4969;52.304;4.968;2024-02-21T08:48:54;16.61;65.95
9861;DHT22;4969;52.304;4.968;2024-02-21T08:51:20;16.98;65.16
9861;DHT22;4969;52.304;4.968;2024-02-21T08:53:48;16.65;63.13
9861;DHT22;4969;52.304;4.968;2024-02-21T08:56:14;16.12;65.49
9861;DHT22;4969;52.304;4.968;2024-02-21T08:58:43;16.52;66.61
9861;DHT22;4969;52.304;4.968;2024-02-21T09:01:09;16.03;67.14
9861;DHT22;4969;52.304;4.968;2024-02-21T09:03:36;15.40;67.81
9861;DHT22;4969;52.304;4.968;2024-02-21T09:06:04;15.68;64.75
9861;DHT22;4969;52.304;4.968;2024-02-21T09:08:30;16.34;70.13
9861;DHT22;4969;52.304;4.968;2024-02-21T09:10:57;16.85;67.21
9861;DHT22;4969;52.304;4.968;2024-02-21T09:13:24;16.51;67.00
9861;DHT22;4969;52.304;4.968;2024-02-21T09:15:52;16.71;66.77
9861;DHT22;4969;52.304;4.968;2024-02-21T09:18:18;16.98;66.51
9861;DHT22;4969;52.304;4.968;2024-02-21T09:20:45;16.13;69.58
9861;DHT22;4969;52.304;4.968;2024-02-21T09:23:12;16.89;68.09
9861;DHT22;4969;52.304;4.968;2024-02-21T09:25:39;16.89;66.03
9861;DHT22;4969;52.304;4.968;2024-02-21T09:28:06;16.72;68.20
9861;DHT22;4969;52.304;4.968;2024-02-21T09:30:33;17.42;67.06
9861;DHT22;4969;52.304;4.968;2024-02-21T09:33:01;17.41;66.77
9861;DHT22;4969;52.304;4.968;2024-02-21T09:35:27;17.69;66.41
9861;DHT22;4969;52.304;4.968;2024-02-21T09:37:54;17.69;65.43
9861;DHT22;4969;52.304;4.968;2024-02-21T09:40:21;17.55;64.19
9861;DHT22;4969;52.304;4.968;2024-02-21T09:42:48;17.28;67.14
9861;DHT22;4969;52.304;4.968;2024-02-21T09:45:19;17.54;64.23
9861;DHT22;4969;52.304;4.968;2024-02-21T09:47:57;17.40;66.98
9861;DHT22;4969;52.304;4.968;2024-02-21T09:50:29;17.41;66.90
9861;DHT22;4969;52.304;4.968;2024-02-21T09:52:58;17.89;64.06
9861;DHT22;4969;52.304;4.968;2024-02-21T09:55:25;17.83;64.75
9861;DHT22;4969;52.304;4.968;2024-02-21T09:57:53;17.10;65.11
9861;DHT22;4969;52.304;4.968;2024-02-21T10:00:20;17.83;64.11
9861;DHT22;4969;52.304;4.968;2024-02-21T10:02:47;17.95;63.99
9861;DHT22;4969;52.304;4.968;2024-02-21T10:05:15;17.49;65.13
9861;DHT22;4969;52.304;4.968;2024-02-21T10:07:44;17.37;62.14
9861;DHT22;4969;52.304;4.968;2024-02-21T10:10:11;16.92;63.77
9861;DHT22;4969;52.304;4.968;2024-02-21T10:12:48;17.14;66.15
9861;DHT22;4969;52.304;4.968;2024-02-21T10:15:19;17.42;65.20
9861;DHT22;4969;52.304;4.968;2024-02-21T10:17:46;16.99;66.04
9861;DHT22;4969;52.304;4.968;2024-02-21T10:20:13;16.83;66.25
9861;DHT22;4969;52.304;4.968;2024-02-21T10:22:40;16.69;60.26
9861;DHT22;4969;52.304;4.968;2024-02-21T10:25:09;16.40;65.07
9861;DHT22;4969;52.304;4.968;2024-02-21T10:27:36;16.49;67.23
9861;DHT22;4969;52.304;4.968;2024-02-21T10:30:04;17.26;65.75
9861;DHT22;4969;52.304;4.968;2024-02-21T10:32:31;17.27;65.04
9861;DHT22;4969;52.304;4.968;2024-02-21T10:35:01;17.40;64.68
9861;DHT22;4969;52.304;4.968;2024-02-21T10:37:28;17.21;61.83
9861;DHT22;4969;52.304;4.968;2024-02-21T10:39:55;16.99;67.50
9861;DHT22;4969;52.304;4.968;2024-02-21T10:42:29;17.69;66.48
9861;DHT22;4969;52.304;4.968;2024-02-21T10:45:00;17.82;64.97
9861;DHT22;4969;52.304;4.968;2024-02-21T10:47:30;18.03;65.34
9861;DHT22;4969;52.304;4.968;2024-02-21T10:50:03;17.87;60.08
9861;DHT22;4969;52.304;4.968;2024-02-21T10:52:41;17.49;60.86
9861;DHT22;4969;52.304;4.968;2024-02-21T10:55:16;17.13;64.70
9861;DHT22;4969;52.304;4.968;2024-02-21T10:57:48;17.16;65.16
9861;DHT22;4969;52.304;4.968;2024-02-21T11:00:17;17.23;58.32
9861;DHT22;4969;52.304;4.968;2024-02-21T11:02:44;17.51;63.42
9861;DHT22;4969;52.304;4.968;2024-02-21T11:05:11;17.07;62.45
9861;DHT22;4969;52.304;4.968;2024-02-21T11:07:39;17.04;65.25
9861;DHT22;4969;52.304;4.968;2024-02-21T11:10:20;17.71;61.55
9861;DHT22;4969;52.304;4.968;2024-02-21T11:12:48;17.74;65.09
9861;DHT22;4969;52.304;4.968;2024-02-21T11:15:15;17.30;61.75
9861;DHT22;4969;52.304;4.968;2024-02-21T11:17:41;17.44;67.15
9861;DHT22;4969;52.304;4.968;2024-02-21T11:20:13;17.20;66.13
9861;DHT22;4969;52.304;4.968;2024-02-21T11:22:41;16.93;63.72
9861;DHT22;4969;52.304;4.968;2024-02-21T11:25:08;17.04;67.26
9861;DHT22;4969;52.304;4.968;2024-02-21T11:27:37;17.90;59.20
9861;DHT22;4969;52.304;4.968;2024-02-21T11:30:05;17.74;64.53
9861;DHT22;4969;52.304;4.968;2024-02-21T11:32:32;18.00;65.16
9861;DHT22;4969;52.304;4.968;2024-02-21T11:34:59;17.65;65.15
9861;DHT22;4969;52.304;4.968;2024-02-21T11:37:27;17.32;63.54
9861;DHT22;4969;52.304;4.968;2024-02-21T11:39:54;17.02;65.68
9861;DHT22;4969;52.304;4.968;2024-02-21T11:42:21;17.41;67.25
9861;DHT22;4969;52.304;4.968;2024-02-21T11:44:48;17.45;66.05
9861;DHT22;4969;52.304;4.968;2024-02-21T11:47:15;17.38;65.31
9861;DHT22;4969;52.304;4.968;2024-02-21T11:49:45;18.18;65.81
9861;DHT22;4969;52.304;4.968;2024-02-21T11:52:12;17.81;66.86
9861;DHT22;4969;52.304;4.968;2024-02-21T11:54:41;18.18;65.42
9861;DHT22;4969;52.304;4.968;2024-02-21T11:57:07;18.62;61.59
9861;DHT22;4969;52.304;4.968;2024-02-21T11:59:34;18.31;59.92
9861;DHT22;4969;52.304;4.968;2024-02-21T12:02:01;17.83;61.66
9861;DHT22;4969;52.304;4.968;2024-02-21T12:04:29;17.44;60.34
9861;DHT22;4969;52.304;4.968;2024-02-21T12:06:57;17.20;67.87
9861;DHT22;4969;52.304;4.968;2024-02-21T12:09:24;17.49;61.76
9861;DHT22;4969;52.304;4.968;2024-02-21T12:11:58;18.02;65.80
9861;DHT22;4969;52.304;4.968;2024-02-21T12:14:25;18.13;60.58
9861;DHT22;4969;52.304;4.968;2024-02-21T12:16:53;18.00;61.47
9861;DHT22;4969;52.304;4.968;2024-02-21T12:19:20;18.07;64.50
9861;DHT22;4969;52.304;4.968;2024-02-21T12:21:49;18.30;64.95
9861;DHT22;4969;52.304;4.968;2024-02-21T12:24:22;18.04;60.48
9861;DHT22;4969;52.304;4.968;2024-02-21T12:26:49;18.21;60.64
9861;DHT22;4969;52.304;4.968;2024-02-21T12:29:17;18.37;64.64
9861;DHT22;4969;52.304;4.968;2024-02-21T12:31:44;18.34;61.51
9861;DHT22;4969;52.304;4.968;2024-02-21T12:34:10;18.14;66.65
9861;DHT22;4969;52.304;4.968;2024-02-21T12:36:41;17.68;63.39
9861;DHT22;4969;52.304;4.968;2024-02-21T12:39:09;18.10;65.29
9861;DHT22;4969;52.304;4.968;2024-02-21T12:41:36;17.90;61.33
9861;DHT22;4969;52.304;4.968;2024-02-21T12:44:04;17.74;58.79
9861;DHT22;4969;52.304;4.968;2024-02-21T12:46:32;17.57;64.78
9861;DHT22;4969;52.304;4.968;2024-02-21T12:48:59;18.03;62.02
9861;DHT22;4969;52.304;4.968;2024-02-21T12:51:25;18.30;63.72
9861;DHT22;4969;52.304;4.968;2024-02-21T12:53:52;17.89;64.58
9861;DHT22;4969;52.304;4.968;2024-02-21T12:56:20;18.18;62.11
9861;DHT22;4969;52.304;4.968;2024-02-21T12:58:46;18.10;63.01
9861;DHT22;4969;52.304;4.968;2024-02-21T13:01:13;17.02;60.58
9861;DHT22;4969;52.304;4.968;2024-02-21T13:03:39;17.38;63.06
9861;DHT22;4969;52.304;4.968;2024-02-21T13:06:06;17.32;64.95
9861;DHT22;4969;52.304;4.968;2024-02-21T13:08:35;17.20;63.42
9861;DHT22;4969;52.304;4.968;2024-02-21T13:11:02;17.69;63.19
9861;DHT22;4969;52.304;4.968;2024-02-21T13:13:30;17.71;64.96
9861;DHT22;4969;52.304;4.968;2024-02-21T13:15:57;17.49;59.87
9861;DHT22;4969;52.304;4.968;2024-02-21T13:18:24;17.79;64.93
9861;DHT22;4969;52.304;4.968;2024-02-21T13:20:50;17.79;63.73
9861;DHT22;4969;52.304;4.968;2024-02-21T13:23:17;16.72;62.07
9861;DHT22;4969;52.304;4.968;2024-02-21T13:25:44;17.54;66.34
9861;DHT22;4969;52.304;4.968;2024-02-21T13:28:11;17.10;62.87
9861;DHT22;4969;52.304;4.968;2024-02-21T13:30:40;17.19;65.46
9861;DHT22;4969;52.304;4.968;2024-02-21T13:33:07;17.68;65.82
9861;DHT22;4969;52.304;4.968;2024-02-21T13:35:35;17.86;61.75
9861;DHT22;4969;52.304;4.968;2024-02-21T13:38:02;17.44;65.60
9861;DHT22;4969;52.304;4.968;2024-02-21T13:40:29;17.64;66.90
9861;DHT22;4969;52.304;4.968;2024-02-21T13:42:56;17.95;63.99
9861;DHT22;4969;52.304;4.968;2024-02-21T13:45:23;17.67;63.52
9861;DHT22;4969;52.304;4.968;2024-02-21T13:47:51;18.12;65.67
9861;DHT22;4969;52.304;4.968;2024-02-21T13:50:18;18.09;63.60
9861;DHT22;4969;52.304;4.968;2024-02-21T13:52:45;17.99;60.84
9861;DHT22;4969;52.304;4.968;2024-02-21T13:55:11;18.62;64.23
9861;DHT22;4969;52.304;4.968;2024-02-21T13:57:38;18.27;65.77
9861;DHT22;4969;52.304;4.968;2024-02-21T14:00:05;17.96;59.15
9861;DHT22;4969;52.304;4.968;2024-02-21T14:02:36;17.68;61.88
9861;DHT22;4969;52.304;4.968;2024-02-21T14:05:04;17.00;62.60
9861;DHT22;4969;52.304;4.968;2024-02-21T14:07:31;17.97;62.68
9861;DHT22;4969;52.304;4.968;2024-02-21T14:09:58;18.14;64.01
9861;DHT22;4969;52.304;4.968;2024-02-21T14:12:25;17.55;66.48
9861;DHT22;4969;52.304;4.968;2024-02-21T14:14:54;17.74;61.54
9861;DHT22;4969;52.304;4.968;2024-02-21T14:17:23;17.89;62.22
9861;DHT22;4969;52.304;4.968;2024-02-21T14:19:50;18.41;64.83
9861;DHT22;4969;52.304;4.968;2024-02-21T14:22:18;18.30;65.05
9861;DHT22;4969;52.304;4.968;2024-02-21T14:24:45;18.79;63.98
9861;DHT22;4969;52.304;4.968;2024-02-21T14:27:11;18.69;58.43
9861;DHT22;4969;52.304;4.968;2024-02-21T14:29:38;18.09;63.96
9861;DHT22;4969;52.304;4.968;2024-02-21T14:32:05;17.79;66.28
9861;DHT22;4969;52.304;4.968;2024-02-21T14:34:32;17.79;63.48
9861;DHT22;4969;52.304;4.968;2024-02-21T14:36:59;18.27;65.07
9861;DHT22;4969;52.304;4.968;2024-02-21T14:39:27;18.54;64.80
9861;DHT22;4969;52.304;4.968;2024-02-21T14:41:54;18.50;59.29
9861;DHT22;4969;52.304;4.968;2024-02-21T14:44:21;18.79;65.19
9861;DHT22;4969;52.304;4.968;2024-02-21T14:46:47;18.88;60.81
9861;DHT22;4969;52.304;4.968;2024-02-21T14:49:14;18.73;64.97
9861;DHT22;4969;52.304;4.968;2024-02-21T14:51:40;19.23;63.70
9861;DHT22;4969;52.304;4.968;2024-02-21T14:54:07;19.48;62.82
9861;DHT22;4969;52.304;4.968;2024-02-21T14:56:35;18.67;61.89
9861;DHT22;4969;52.304;4.968;2024-02-21T14:59:02;18.95;60.98
9861;DHT22;4969;52.304;4.968;2024-02-21T15:01:29;18.64;60.31
9861;DHT22;4969;52.304;4.968;2024-02-21T15:03:57;18.38;63.62
9861;DHT22;4969;52.304;4.968;2024-02-21T15:06:23;17.62;56.80
9861;DHT22;4969;52.304;4.968;2024-02-21T15:08:50;17.30;64.80
9861;DHT22;4969;52.304;4.968;2024-02-21T15:11:17;17.42;62.19
9861;DHT22;4969;52.304;4.968;2024-02-21T15:13:45;18.34;62.76
9861;DHT22;4969;52.304;4.968;2024-02-21T15:16:13;18.73;62.46
9861;DHT22;4969;52.304;4.968;2024-02-21T15:18:39;18.57;62.60
9861;DHT22;4969;52.304;4.968;2024-02-21T15:21:06;18.75;60.73
9861;DHT22;4969;52.304;4.968;2024-02-21T15:23:35;18.58;62.46
9861;DHT22;4969;52.304;4.968;2024-02-21T15:26:02;18.37;61.03
9861;DHT22;4969;52.304;4.968;2024-02-21T15:28:29;18.75;62.61
9861;DHT22;4969;52.304;4.968;2024-02-21T15:30:57;18.50;60.84
9861;DHT22;4969;52.304;4.968;2024-02-21T15:33:24;18.54;62.77
9861;DHT22;4969;52.304;4.968;2024-02-21T15:35:52;18.79;61.80
9861;DHT22;4969;52.304;4.968;2024-02-21T15:38:19;18.69;60.96
9861;DHT22;4969;52.304;4.968;2024-02-21T15:40:45;18.62;61.97
9861;DHT22;4969;52.304;4.968;2024-02-21T15:43:12;18.35;60.72
9861;DHT22;4969;52.304;4.968;2024-02-21T15:45:38;18.69;58.47
9861;DHT22;4969;52.304;4.968;2024-02-21T15:48:07;17.87;64.14
9861;DHT22;4969;52.304;4.968;2024-02-21T15:50:34;17.85;62.24
9861;DHT22;4969;52.304;4.968;2024-02-21T15:53:02;17.95;64.58
9861;DHT22;4969;52.304;4.968;2024-02-21T15:55:29;18.23;60.86
9861;DHT22;4969;52.304;4.968;2024-02-21T15:57:56;18.37;63.18
9861;DHT22;4969;52.304;4.968;2024-02-21T16:00:22;18.76;61.16
9861;DHT22;4969;52.304;4.968;2024-02-21T16:02:49;18.80;61.44